sensor_id;sensor_type;location;lat;lon;timestamp;P1;durP1;ratioP1;P2;durP2;ratioP2
22270;SDS011;11304;53.520;10.104;2023-03-01T00:01:06;16.45;;;6.38;;
22270;SDS011;11304;53.520;10.104;2023-03-01T00:03:33;12.93;;;6.45;;
22270;SDS011;11304;53.520;10.104;2023-03-01T00:05:59;10.90;;;6.65;;
22270;SDS011;11304;53.520;10.104;2023-03-01T00:08:26;10.38;;;6.22;;
22270;SDS011;11304;53.520;10.104;2023-03-01T00:13:27;13.73;;;7.13;;
22270;SDS011;11304;53.520;10.104;2023-03-01T00:15:53;14.95;;;7.50;;
22270;SDS011;11304;53.520;10.104;2023-03-01T00:18:19;15.63;;;7.78;;
22270;SDS011;11304;53.520;10.104;2023-03-01T00:20:53;9.87;;;6.13;;
22270;SDS011;11304;53.520;10.104;2023-03-01T00:23:19;15.25;;;7.43;;
22270;SDS011;11304;53.520;10.104;2023-03-01T00:25:45;12.88;;;8.10;;
22270;SDS011;11304;53.520;10.104;2023-03-01T00:28:11;16.48;;;8.40;;
22270;SDS011;11304;53.520;10.104;2023-03-01T00:30:38;13.30;;;8.02;;
22270;SDS011;11304;53.520;10.104;2023-03-01T00:33:04;16.20;;;8.10;;
22270;SDS011;11304;53.520;10.104;2023-03-01T00:35:31;19.42;;;8.98;;
22270;SDS011;11304;53.520;10.104;2023-03-01T00:37:57;15.45;;;8.48;;
22270;SDS011;11304;53.520;10.104;2023-03-01T00:40:24;14.70;;;8.52;;
22270;SDS011;11304;53.520;10.104;2023-03-01T00:42:50;13.20;;;7.80;;
22270;SDS011;11304;53.520;10.104;2023-03-01T00:45:16;14.05;;;7.88;;
22270;SDS011;11304;53.520;10.104;2023-03-01T00:47:43;18.02;;;10.10;;
22270;SDS011;11304;53.520;10.104;2023-03-01T00:50:09;16.85;;;9.10;;
22270;SDS011;11304;53.520;10.104;2023-03-01T00:52:35;16.10;;;9.48;;
22270;SDS011;11304;53.520;10.104;2023-03-01T00:55:02;13.68;;;8.60;;
22270;SDS011;11304;53.520;10.104;2023-03-01T00:57:28;16.38;;;8.13;;
22270;SDS011;11304;53.520;10.104;2023-03-01T00:59:54;15.55;;;8.20;;
22270;SDS011;11304;53.520;10.104;2023-03-01T01:02:20;13.38;;;8.07;;
22270;SDS011;11304;53.520;10.104;2023-03-01T01:04:47;15.38;;;9.07;;
22270;SDS011;11304;53.520;10.104;2023-03-01T01:07:13;18.90;;;9.20;;
22270;SDS011;11304;53.520;10.104;2023-03-01T01:09:39;12.35;;;8.35;;
22270;SDS011;11304;53.520;10.104;2023-03-01T01:12:05;14.98;;;8.27;;
22270;SDS011;11304;53.520;10.104;2023-03-01T01:14:32;16.67;;;8.70;;
22270;SDS011;11304;53.520;10.104;2023-03-01T01:16:58;17.92;;;8.90;;
22270;SDS011;11304;53.520;10.104;2023-03-01T01:19:25;17.27;;;9.15;;
22270;SDS011;11304;53.520;10.104;2023-03-01T01:21:51;16.77;;;9.35;;
22270;SDS011;11304;53.520;10.104;2023-03-01T01:24:18;16.45;;;9.80;;
22270;SDS011;11304;53.520;10.104;2023-03-01T01:26:44;15.27;;;9.40;;
22270;SDS011;11304;53.520;10.104;2023-03-01T01:29:10;14.63;;;9.20;;
22270;SDS011;11304;53.520;10.104;2023-03-01T01:31:37;16.17;;;8.75;;
22270;SDS011;11304;53.520;10.104;2023-03-01T01:34:04;13.13;;;8.48;;
22270;SDS011;11304;53.520;10.104;2023-03-01T01:36:31;13.00;;;8.23;;
22270;SDS011;11304;53.520;10.104;2023-03-01T01:38:57;13.32;;;8.00;;
22270;SDS011;11304;53.520;10.104;2023-03-01T01:41:24;15.27;;;9.63;;
22270;SDS011;11304;53.520;10.104;2023-03-01T01:44:10;17.38;;;9.75;;
22270;SDS011;11304;53.520;10.104;2023-03-01T01:47:11;16.13;;;9.38;;
22270;SDS011;11304;53.520;10.104;2023-03-01T01:54:37;18.45;;;10.65;;
22270;SDS011;11304;53.520;10.104;2023-03-01T01:57:06;19.05;;;9.43;;
22270;SDS011;11304;53.520;10.104;2023-03-01T01:59:33;15.95;;;9.85;;
22270;SDS011;11304;53.520;10.104;2023-03-01T02:02:00;17.92;;;9.60;;
22270;SDS011;11304;53.520;10.104;2023-03-01T02:04:28;17.90;;;9.85;;
22270;SDS011;11304;53.520;10.104;2023-03-01T02:06:57;18.83;;;11.00;;
22270;SDS011;11304;53.520;10.104;2023-03-01T02:09:23;17.63;;;10.10;;
22270;SDS011;11304;53.520;10.104;2023-03-01T02:11:50;18.30;;;10.20;;
22270;SDS011;11304;53.520;10.104;2023-03-01T02:14:16;19.83;;;10.70;;
22270;SDS011;11304;53.520;10.104;2023-03-01T02:16:43;20.95;;;11.35;;
22270;SDS011;11304;53.520;10.104;2023-03-01T02:19:10;18.77;;;11.18;;
22270;SDS011;11304;53.520;10.104;2023-03-01T02:24:49;20.90;;;11.75;;
22270;SDS011;11304;53.520;10.104;2023-03-01T02:26:55;20.77;;;11.02;;
22270;SDS011;11304;53.520;10.104;2023-03-01T02:29:22;18.38;;;10.15;;
22270;SDS011;11304;53.520;10.104;2023-03-01T02:31:49;20.48;;;10.80;;
22270;SDS011;11304;53.520;10.104;2023-03-01T02:34:22;16.95;;;10.65;;
22270;SDS011;11304;53.520;10.104;2023-03-01T02:37:03;18.15;;;11.10;;
22270;SDS011;11304;53.520;10.104;2023-03-01T02:39:31;17.05;;;10.13;;
22270;SDS011;11304;53.520;10.104;2023-03-01T02:41:58;15.63;;;9.82;;
22270;SDS011;11304;53.520;10.104;2023-03-01T02:44:25;17.98;;;9.80;;
22270;SDS011;11304;53.520;10.104;2023-03-01T02:46:52;18.75;;;10.13;;
22270;SDS011;11304;53.520;10.104;2023-03-01T02:54:31;15.18;;;9.32;;
22270;SDS011;11304;53.520;10.104;2023-03-01T02:56:59;15.98;;;9.60;;
22270;SDS011;11304;53.520;10.104;2023-03-01T02:59:27;16.25;;;9.93;;
22270;SDS011;11304;53.520;10.104;2023-03-01T03:01:55;15.38;;;9.25;;
22270;SDS011;11304;53.520;10.104;2023-03-01T03:04:21;16.50;;;9.75;;
22270;SDS011;11304;53.520;10.104;2023-03-01T03:06:48;15.60;;;8.73;;
22270;SDS011;11304;53.520;10.104;2023-03-01T03:09:14;15.82;;;10.02;;
22270;SDS011;11304;53.520;10.104;2023-03-01T03:11:40;16.60;;;9.85;;
22270;SDS011;11304;53.520;10.104;2023-03-01T03:14:08;15.98;;;10.13;;
22270;SDS011;11304;53.520;10.104;2023-03-01T03:16:47;15.20;;;9.18;;
22270;SDS011;11304;53.520;10.104;2023-03-01T03:19:14;17.67;;;9.38;;
22270;SDS011;11304;53.520;10.104;2023-03-01T03:21:41;16.52;;;9.00;;
22270;SDS011;11304;53.520;10.104;2023-03-01T03:24:07;16.30;;;9.55;;
22270;SDS011;11304;53.520;10.104;2023-03-01T03:26:33;17.25;;;9.70;;
22270;SDS011;11304;53.520;10.104;2023-03-01T03:29:00;17.23;;;10.15;;
22270;SDS011;11304;53.520;10.104;2023-03-01T03:31:26;17.38;;;9.10;;
22270;SDS011;11304;53.520;10.104;2023-03-01T03:33:52;16.80;;;9.80;;
22270;SDS011;11304;53.520;10.104;2023-03-01T03:36:20;17.75;;;10.27;;
22270;SDS011;11304;53.520;10.104;2023-03-01T03:38:46;13.52;;;6.88;;
22270;SDS011;11304;53.520;10.104;2023-03-01T03:41:14;19.40;;;9.60;;
22270;SDS011;11304;53.520;10.104;2023-03-01T03:43:40;15.35;;;9.85;;
22270;SDS011;11304;53.520;10.104;2023-03-01T03:46:08;14.52;;;9.45;;
22270;SDS011;11304;53.520;10.104;2023-03-01T03:48:35;17.00;;;10.07;;
22270;SDS011;11304;53.520;10.104;2023-03-01T03:51:02;15.45;;;9.35;;
22270;SDS011;11304;53.520;10.104;2023-03-01T03:53:31;17.50;;;9.65;;
22270;SDS011;11304;53.520;10.104;2023-03-01T03:55:57;15.90;;;9.65;;
22270;SDS011;11304;53.520;10.104;2023-03-01T03:58:24;15.90;;;8.73;;
22270;SDS011;11304;53.520;10.104;2023-03-01T04:00:51;18.98;;;9.30;;
22270;SDS011;11304;53.520;10.104;2023-03-01T04:03:18;16.80;;;9.70;;
22270;SDS011;11304;53.520;10.104;2023-03-01T04:05:45;16.15;;;9.55;;
22270;SDS011;11304;53.520;10.104;2023-03-01T04:08:11;15.73;;;8.80;;
22270;SDS011;11304;53.520;10.104;2023-03-01T04:10:38;15.27;;;9.68;;
22270;SDS011;11304;53.520;10.104;2023-03-01T04:13:05;19.60;;;11.43;;
22270;SDS011;11304;53.520;10.104;2023-03-01T04:15:32;15.63;;;9.45;;
22270;SDS011;11304;53.520;10.104;2023-03-01T04:17:58;17.73;;;9.45;;
22270;SDS011;11304;53.520;10.104;2023-03-01T04:20:26;13.02;;;8.40;;
22270;SDS011;11304;53.520;10.104;2023-03-01T04:22:59;14.45;;;8.93;;
22270;SDS011;11304;53.520;10.104;2023-03-01T04:25:57;11.23;;;7.90;;
22270;SDS011;11304;53.520;10.104;2023-03-01T04:31:01;15.85;;;9.30;;
22270;SDS011;11304;53.520;10.104;2023-03-01T04:33:29;15.70;;;9.25;;
22270;SDS011;11304;53.520;10.104;2023-03-01T04:35:55;18.75;;;9.70;;
22270;SDS011;11304;53.520;10.104;2023-03-01T04:38:22;13.25;;;8.73;;
22270;SDS011;11304;53.520;10.104;2023-03-01T04:40:48;15.05;;;8.77;;
22270;SDS011;11304;53.520;10.104;2023-03-01T04:43:14;15.57;;;9.20;;
22270;SDS011;11304;53.520;10.104;2023-03-01T04:45:41;14.65;;;9.50;;
22270;SDS011;11304;53.520;10.104;2023-03-01T04:48:07;15.77;;;8.85;;
22270;SDS011;11304;53.520;10.104;2023-03-01T04:50:34;14.57;;;8.05;;
22270;SDS011;11304;53.520;10.104;2023-03-01T04:53:00;13.32;;;8.00;;
22270;SDS011;11304;53.520;10.104;2023-03-01T04:55:27;12.95;;;8.32;;
22270;SDS011;11304;53.520;10.104;2023-03-01T04:57:53;14.05;;;8.05;;
22270;SDS011;11304;53.520;10.104;2023-03-01T05:00:20;15.15;;;9.07;;
22270;SDS011;11304;53.520;10.104;2023-03-01T05:02:47;16.17;;;9.30;;
22270;SDS011;11304;53.520;10.104;2023-03-01T05:05:18;11.23;;;7.55;;
22270;SDS011;11304;53.520;10.104;2023-03-01T05:07:44;16.40;;;8.07;;
22270;SDS011;11304;53.520;10.104;2023-03-01T05:10:10;12.27;;;8.20;;
22270;SDS011;11304;53.520;10.104;2023-03-01T05:12:36;15.23;;;8.40;;
22270;SDS011;11304;53.520;10.104;2023-03-01T05:15:03;13.55;;;8.45;;
22270;SDS011;11304;53.520;10.104;2023-03-01T05:17:32;13.88;;;8.18;;
22270;SDS011;11304;53.520;10.104;2023-03-01T05:19:59;16.15;;;9.05;;
22270;SDS011;11304;53.520;10.104;2023-03-01T05:22:25;13.02;;;7.75;;
22270;SDS011;11304;53.520;10.104;2023-03-01T05:24:52;17.88;;;7.85;;
22270;SDS011;11304;53.520;10.104;2023-03-01T05:27:19;17.05;;;8.77;;
22270;SDS011;11304;53.520;10.104;2023-03-01T05:29:47;16.60;;;8.20;;
22270;SDS011;11304;53.520;10.104;2023-03-01T05:32:13;23.98;;;8.95;;
22270;SDS011;11304;53.520;10.104;2023-03-01T05:34:40;28.90;;;9.02;;
22270;SDS011;11304;53.520;10.104;2023-03-01T05:37:07;14.02;;;7.82;;
22270;SDS011;11304;53.520;10.104;2023-03-01T05:39:33;19.60;;;8.13;;
22270;SDS011;11304;53.520;10.104;2023-03-01T05:41:59;18.77;;;8.10;;
22270;SDS011;11304;53.520;10.104;2023-03-01T05:44:26;26.05;;;9.02;;
22270;SDS011;11304;53.520;10.104;2023-03-01T05:46:54;19.17;;;8.80;;
22270;SDS011;11304;53.520;10.104;2023-03-01T05:49:20;16.00;;;8.25;;
22270;SDS011;11304;53.520;10.104;2023-03-01T05:54:15;16.98;;;7.60;;
22270;SDS011;11304;53.520;10.104;2023-03-01T05:56:41;13.05;;;8.23;;
22270;SDS011;11304;53.520;10.104;2023-03-01T05:59:07;12.80;;;7.68;;
22270;SDS011;11304;53.520;10.104;2023-03-01T06:01:33;13.60;;;7.47;;
22270;SDS011;11304;53.520;10.104;2023-03-01T06:04:00;14.73;;;7.50;;
22270;SDS011;11304;53.520;10.104;2023-03-01T06:06:26;14.25;;;7.20;;
22270;SDS011;11304;53.520;10.104;2023-03-01T06:08:52;14.75;;;8.27;;
22270;SDS011;11304;53.520;10.104;2023-03-01T06:11:18;14.05;;;8.52;;
22270;SDS011;11304;53.520;10.104;2023-03-01T06:13:45;11.82;;;8.13;;
22270;SDS011;11304;53.520;10.104;2023-03-01T06:16:11;15.30;;;8.55;;
22270;SDS011;11304;53.520;10.104;2023-03-01T06:18:38;15.07;;;8.25;;
22270;SDS011;11304;53.520;10.104;2023-03-01T06:21:04;16.75;;;7.93;;
22270;SDS011;11304;53.520;10.104;2023-03-01T06:23:31;14.48;;;8.18;;
22270;SDS011;11304;53.520;10.104;2023-03-01T06:25:57;14.48;;;8.27;;
22270;SDS011;11304;53.520;10.104;2023-03-01T06:28:23;18.38;;;8.60;;
22270;SDS011;11304;53.520;10.104;2023-03-01T06:30:49;14.18;;;8.15;;
22270;SDS011;11304;53.520;10.104;2023-03-01T06:33:16;14.17;;;7.77;;
22270;SDS011;11304;53.520;10.104;2023-03-01T06:35:45;13.32;;;7.68;;
22270;SDS011;11304;53.520;10.104;2023-03-01T06:38:11;17.00;;;8.15;;
22270;SDS011;11304;53.520;10.104;2023-03-01T06:40:39;18.17;;;8.77;;
22270;SDS011;11304;53.520;10.104;2023-03-01T06:43:05;16.25;;;7.65;;
22270;SDS011;11304;53.520;10.104;2023-03-01T06:45:32;14.48;;;8.32;;
22270;SDS011;11304;53.520;10.104;2023-03-01T06:48:02;14.93;;;8.07;;
22270;SDS011;11304;53.520;10.104;2023-03-01T06:50:31;10.15;;;7.20;;
22270;SDS011;11304;53.520;10.104;2023-03-01T06:52:58;15.25;;;7.90;;
22270;SDS011;11304;53.520;10.104;2023-03-01T06:55:23;20.17;;;8.15;;
22270;SDS011;11304;53.520;10.104;2023-03-01T06:57:53;24.02;;;8.48;;
22270;SDS011;11304;53.520;10.104;2023-03-01T07:00:22;20.15;;;7.68;;
22270;SDS011;11304;53.520;10.104;2023-03-01T07:02:48;27.35;;;9.32;;
22270;SDS011;11304;53.520;10.104;2023-03-01T07:05:14;18.70;;;8.00;;
22270;SDS011;11304;53.520;10.104;2023-03-01T07:07:40;11.38;;;6.95;;
22270;SDS011;11304;53.520;10.104;2023-03-01T07:10:06;16.48;;;7.85;;
22270;SDS011;11304;53.520;10.104;2023-03-01T07:12:32;23.63;;;8.85;;
22270;SDS011;11304;53.520;10.104;2023-03-01T07:14:58;17.65;;;8.27;;
22270;SDS011;11304;53.520;10.104;2023-03-01T07:17:23;24.33;;;9.93;;
22270;SDS011;11304;53.520;10.104;2023-03-01T07:19:49;15.68;;;7.82;;
22270;SDS011;11304;53.520;10.104;2023-03-01T07:22:15;17.10;;;8.23;;
22270;SDS011;11304;53.520;10.104;2023-03-01T07:24:41;14.18;;;8.00;;
22270;SDS011;11304;53.520;10.104;2023-03-01T07:27:07;13.52;;;8.55;;
22270;SDS011;11304;53.520;10.104;2023-03-01T07:29:33;15.18;;;8.10;;
22270;SDS011;11304;53.520;10.104;2023-03-01T07:32:01;12.52;;;7.50;;
22270;SDS011;11304;53.520;10.104;2023-03-01T07:34:27;14.60;;;8.30;;
22270;SDS011;11304;53.520;10.104;2023-03-01T07:36:53;15.85;;;8.00;;
22270;SDS011;11304;53.520;10.104;2023-03-01T07:39:19;15.55;;;7.80;;
22270;SDS011;11304;53.520;10.104;2023-03-01T07:41:44;17.55;;;7.93;;
22270;SDS011;11304;53.520;10.104;2023-03-01T07:44:10;16.45;;;7.60;;
22270;SDS011;11304;53.520;10.104;2023-03-01T07:46:36;14.30;;;7.82;;
22270;SDS011;11304;53.520;10.104;2023-03-01T07:49:02;14.88;;;7.10;;
22270;SDS011;11304;53.520;10.104;2023-03-01T07:51:27;12.95;;;7.72;;
22270;SDS011;11304;53.520;10.104;2023-03-01T07:53:53;14.45;;;7.47;;
22270;SDS011;11304;53.520;10.104;2023-03-01T07:56:19;13.07;;;6.80;;
22270;SDS011;11304;53.520;10.104;2023-03-01T07:58:46;14.90;;;7.97;;
22270;SDS011;11304;53.520;10.104;2023-03-01T08:01:13;12.98;;;7.03;;
22270;SDS011;11304;53.520;10.104;2023-03-01T08:06:08;12.73;;;7.65;;
22270;SDS011;11304;53.520;10.104;2023-03-01T08:08:35;11.95;;;7.70;;
22270;SDS011;11304;53.520;10.104;2023-03-01T08:11:01;18.33;;;7.53;;
22270;SDS011;11304;53.520;10.104;2023-03-01T08:13:28;14.38;;;7.63;;
22270;SDS011;11304;53.520;10.104;2023-03-01T08:15:59;13.48;;;7.32;;
22270;SDS011;11304;53.520;10.104;2023-03-01T08:18:27;18.88;;;7.63;;
22270;SDS011;11304;53.520;10.104;2023-03-01T08:20:52;17.02;;;6.78;;
22270;SDS011;11304;53.520;10.104;2023-03-01T08:23:18;15.27;;;7.50;;
22270;SDS011;11304;53.520;10.104;2023-03-01T08:25:44;15.57;;;6.80;;
22270;SDS011;11304;53.520;10.104;2023-03-01T08:28:09;15.50;;;7.53;;
22270;SDS011;11304;53.520;10.104;2023-03-01T08:30:35;12.90;;;7.20;;
22270;SDS011;11304;53.520;10.104;2023-03-01T08:33:01;22.13;;;7.30;;
22270;SDS011;11304;53.520;10.104;2023-03-01T08:35:26;15.32;;;6.78;;
22270;SDS011;11304;53.520;10.104;2023-03-01T08:37:52;15.85;;;6.78;;
22270;SDS011;11304;53.520;10.104;2023-03-01T08:40:18;26.20;;;7.32;;
22270;SDS011;11304;53.520;10.104;2023-03-01T08:42:43;19.10;;;7.15;;
22270;SDS011;11304;53.520;10.104;2023-03-01T08:45:09;12.20;;;6.88;;
22270;SDS011;11304;53.520;10.104;2023-03-01T08:47:35;19.77;;;6.35;;
22270;SDS011;11304;53.520;10.104;2023-03-01T08:50:02;18.35;;;6.53;;
22270;SDS011;11304;53.520;10.104;2023-03-01T08:52:28;16.20;;;6.60;;
22270;SDS011;11304;53.520;10.104;2023-03-01T08:54:55;16.92;;;6.18;;
22270;SDS011;11304;53.520;10.104;2023-03-01T08:57:21;18.05;;;6.78;;
22270;SDS011;11304;53.520;10.104;2023-03-01T08:59:47;16.35;;;7.00;;
22270;SDS011;11304;53.520;10.104;2023-03-01T09:02:14;14.00;;;6.65;;
22270;SDS011;11304;53.520;10.104;2023-03-01T09:04:41;23.95;;;7.53;;
22270;SDS011;11304;53.520;10.104;2023-03-01T09:07:08;13.75;;;7.00;;
22270;SDS011;11304;53.520;10.104;2023-03-01T09:09:34;17.17;;;7.32;;
22270;SDS011;11304;53.520;10.104;2023-03-01T09:12:00;15.05;;;7.78;;
22270;SDS011;11304;53.520;10.104;2023-03-01T09:14:26;23.40;;;7.88;;
22270;SDS011;11304;53.520;10.104;2023-03-01T09:16:52;14.48;;;7.13;;
22270;SDS011;11304;53.520;10.104;2023-03-01T09:19:18;16.15;;;7.10;;
22270;SDS011;11304;53.520;10.104;2023-03-01T09:21:43;26.42;;;7.90;;
22270;SDS011;11304;53.520;10.104;2023-03-01T09:24:19;19.42;;;7.82;;
22270;SDS011;11304;53.520;10.104;2023-03-01T09:26:46;29.70;;;8.67;;
22270;SDS011;11304;53.520;10.104;2023-03-01T09:29:12;21.08;;;7.88;;
22270;SDS011;11304;53.520;10.104;2023-03-01T09:31:39;22.67;;;7.63;;
22270;SDS011;11304;53.520;10.104;2023-03-01T09:34:05;28.40;;;8.63;;
22270;SDS011;11304;53.520;10.104;2023-03-01T09:36:31;25.52;;;8.75;;
22270;SDS011;11304;53.520;10.104;2023-03-01T09:38:58;30.60;;;9.60;;
22270;SDS011;11304;53.520;10.104;2023-03-01T09:44:00;27.63;;;8.57;;
22270;SDS011;11304;53.520;10.104;2023-03-01T09:46:42;27.73;;;9.60;;
22270;SDS011;11304;53.520;10.104;2023-03-01T09:49:20;20.70;;;8.88;;
22270;SDS011;11304;53.520;10.104;2023-03-01T09:51:57;23.77;;;9.52;;
22270;SDS011;11304;53.520;10.104;2023-03-01T09:54:26;22.02;;;9.93;;
22270;SDS011;11304;53.520;10.104;2023-03-01T09:57:05;18.75;;;9.52;;
22270;SDS011;11304;53.520;10.104;2023-03-01T10:02:39;23.75;;;10.88;;
22270;SDS011;11304;53.520;10.104;2023-03-01T10:10:36;16.63;;;10.35;;
22270;SDS011;11304;53.520;10.104;2023-03-01T10:18:20;15.35;;;9.27;;
22270;SDS011;11304;53.520;10.104;2023-03-01T10:20:56;16.92;;;9.45;;
22270;SDS011;11304;53.520;10.104;2023-03-01T10:23:27;16.58;;;8.70;;
22270;SDS011;11304;53.520;10.104;2023-03-01T10:28:36;21.92;;;9.98;;
22270;SDS011;11304;53.520;10.104;2023-03-01T10:31:11;21.58;;;10.38;;
22270;SDS011;11304;53.520;10.104;2023-03-01T10:33:39;17.50;;;11.15;;
22270;SDS011;11304;53.520;10.104;2023-03-01T10:36:06;14.48;;;10.18;;
22270;SDS011;11304;53.520;10.104;2023-03-01T10:38:46;22.02;;;11.15;;
22270;SDS011;11304;53.520;10.104;2023-03-01T10:41:23;17.55;;;9.93;;
22270;SDS011;11304;53.520;10.104;2023-03-01T10:43:54;15.68;;;9.40;;
22270;SDS011;11304;53.520;10.104;2023-03-01T10:46:22;26.40;;;9.48;;
22270;SDS011;11304;53.520;10.104;2023-03-01T10:51:46;17.05;;;9.55;;
22270;SDS011;11304;53.520;10.104;2023-03-01T10:56:56;22.02;;;10.43;;
22270;SDS011;11304;53.520;10.104;2023-03-01T10:59:31;18.55;;;10.00;;
22270;SDS011;11304;53.520;10.104;2023-03-01T11:07:22;32.22;;;10.75;;
22270;SDS011;11304;53.520;10.104;2023-03-01T11:09:47;18.45;;;9.68;;
22270;SDS011;11304;53.520;10.104;2023-03-01T11:12:13;17.98;;;8.93;;
22270;SDS011;11304;53.520;10.104;2023-03-01T11:14:48;22.10;;;10.00;;
22270;SDS011;11304;53.520;10.104;2023-03-01T11:17:28;17.05;;;9.20;;
22270;SDS011;11304;53.520;10.104;2023-03-01T11:19:59;13.80;;;8.75;;
22270;SDS011;11304;53.520;10.104;2023-03-01T11:22:31;14.70;;;8.68;;
22270;SDS011;11304;53.520;10.104;2023-03-01T11:24:59;16.10;;;8.70;;
22270;SDS011;11304;53.520;10.104;2023-03-01T11:27:28;19.63;;;9.00;;
22270;SDS011;11304;53.520;10.104;2023-03-01T11:30:02;16.45;;;9.05;;
22270;SDS011;11304;53.520;10.104;2023-03-01T11:33:33;17.75;;;8.65;;
22270;SDS011;11304;53.520;10.104;2023-03-01T11:35:34;13.65;;;8.05;;
22270;SDS011;11304;53.520;10.104;2023-03-01T11:38:19;12.18;;;7.55;;
22270;SDS011;11304;53.520;10.104;2023-03-01T11:45:47;11.93;;;7.00;;
22270;SDS011;11304;53.520;10.104;2023-03-01T11:51:05;10.77;;;6.93;;
22270;SDS011;11304;53.520;10.104;2023-03-01T12:06:35;12.88;;;7.47;;
22270;SDS011;11304;53.520;10.104;2023-03-01T12:11:52;10.88;;;7.05;;
22270;SDS011;11304;53.520;10.104;2023-03-01T12:19:36;11.13;;;7.47;;
22270;SDS011;11304;53.520;10.104;2023-03-01T12:29:34;15.60;;;8.23;;
22270;SDS011;11304;53.520;10.104;2023-03-01T12:32:05;12.63;;;8.00;;
22270;SDS011;11304;53.520;10.104;2023-03-01T12:34:37;13.57;;;7.50;;
22270;SDS011;11304;53.520;10.104;2023-03-01T12:40:13;11.05;;;7.47;;
22270;SDS011;11304;53.520;10.104;2023-03-01T12:53:02;14.40;;;9.07;;
22270;SDS011;11304;53.520;10.104;2023-03-01T12:55:29;16.50;;;10.68;;
22270;SDS011;11304;53.520;10.104;2023-03-01T13:00:45;15.07;;;8.75;;
22270;SDS011;11304;53.520;10.104;2023-03-01T13:11:20;28.35;;;9.70;;
22270;SDS011;11304;53.520;10.104;2023-03-01T13:13:47;21.17;;;8.65;;
22270;SDS011;11304;53.520;10.104;2023-03-01T13:19:15;12.32;;;7.07;;
22270;SDS011;11304;53.520;10.104;2023-03-01T13:21:41;11.50;;;7.25;;
22270;SDS011;11304;53.520;10.104;2023-03-01T13:34:45;25.70;;;7.55;;
22270;SDS011;11304;53.520;10.104;2023-03-01T13:37:20;9.77;;;6.32;;
22270;SDS011;11304;53.520;10.104;2023-03-01T13:39:46;11.98;;;6.57;;
22270;SDS011;11304;53.520;10.104;2023-03-01T13:44:57;11.75;;;6.25;;
22270;SDS011;11304;53.520;10.104;2023-03-01T13:47:23;10.98;;;6.93;;
22270;SDS011;11304;53.520;10.104;2023-03-01T13:50:00;15.02;;;8.30;;
22270;SDS011;11304;53.520;10.104;2023-03-01T13:52:39;23.10;;;8.77;;
22270;SDS011;11304;53.520;10.104;2023-03-01T13:55:21;15.32;;;7.38;;
22270;SDS011;11304;53.520;10.104;2023-03-01T13:57:50;15.63;;;6.43;;
22270;SDS011;11304;53.520;10.104;2023-03-01T14:00:29;11.15;;;6.75;;
22270;SDS011;11304;53.520;10.104;2023-03-01T14:02:59;18.27;;;7.43;;
22270;SDS011;11304;53.520;10.104;2023-03-01T14:05:25;13.43;;;7.15;;
22270;SDS011;11304;53.520;10.104;2023-03-01T14:07:51;15.55;;;6.55;;
22270;SDS011;11304;53.520;10.104;2023-03-01T14:10:17;13.35;;;6.47;;
22270;SDS011;11304;53.520;10.104;2023-03-01T14:12:49;10.93;;;6.30;;
22270;SDS011;11304;53.520;10.104;2023-03-01T14:15:29;14.35;;;6.95;;
22270;SDS011;11304;53.520;10.104;2023-03-01T14:20:27;9.13;;;6.43;;
22270;SDS011;11304;53.520;10.104;2023-03-01T14:22:55;24.50;;;6.47;;
22270;SDS011;11304;53.520;10.104;2023-03-01T14:25:26;12.60;;;6.07;;
22270;SDS011;11304;53.520;10.104;2023-03-01T14:27:56;8.40;;;5.00;;
22270;SDS011;11304;53.520;10.104;2023-03-01T14:30:24;9.48;;;5.00;;
22270;SDS011;11304;53.520;10.104;2023-03-01T14:32:57;10.40;;;4.82;;
22270;SDS011;11304;53.520;10.104;2023-03-01T14:35:26;12.15;;;5.70;;
22270;SDS011;11304;53.520;10.104;2023-03-01T14:37:52;10.57;;;5.00;;
22270;SDS011;11304;53.520;10.104;2023-03-01T14:42:47;12.80;;;8.05;;
22270;SDS011;11304;53.520;10.104;2023-03-01T14:45:14;12.80;;;6.88;;
22270;SDS011;11304;53.520;10.104;2023-03-01T14:47:40;13.13;;;7.70;;
22270;SDS011;11304;53.520;10.104;2023-03-01T14:50:26;10.63;;;4.97;;
22270;SDS011;11304;53.520;10.104;2023-03-01T14:52:54;10.70;;;5.53;;
22270;SDS011;11304;53.520;10.104;2023-03-01T14:57:48;8.43;;;4.95;;
22270;SDS011;11304;53.520;10.104;2023-03-01T15:00:35;9.13;;;4.65;;
22270;SDS011;11304;53.520;10.104;2023-03-01T15:03:04;7.22;;;4.18;;
22270;SDS011;11304;53.520;10.104;2023-03-01T15:05:34;9.38;;;4.32;;
22270;SDS011;11304;53.520;10.104;2023-03-01T15:08:02;5.22;;;4.03;;
22270;SDS011;11304;53.520;10.104;2023-03-01T15:10:29;8.80;;;4.45;;
22270;SDS011;11304;53.520;10.104;2023-03-01T15:12:56;6.97;;;4.38;;
22270;SDS011;11304;53.520;10.104;2023-03-01T15:17:54;7.93;;;3.25;;
22270;SDS011;11304;53.520;10.104;2023-03-01T15:20:20;7.10;;;3.50;;
22270;SDS011;11304;53.520;10.104;2023-03-01T15:22:50;6.60;;;3.42;;
22270;SDS011;11304;53.520;10.104;2023-03-01T15:25:18;5.97;;;3.50;;
22270;SDS011;11304;53.520;10.104;2023-03-01T15:27:48;5.45;;;3.78;;
22270;SDS011;11304;53.520;10.104;2023-03-01T15:30:36;8.43;;;4.00;;
22270;SDS011;11304;53.520;10.104;2023-03-01T15:35:48;6.13;;;4.05;;
22270;SDS011;11304;53.520;10.104;2023-03-01T15:38:25;6.07;;;4.13;;
22270;SDS011;11304;53.520;10.104;2023-03-01T15:40:52;5.53;;;4.10;;
22270;SDS011;11304;53.520;10.104;2023-03-01T15:43:37;6.40;;;4.20;;
22270;SDS011;11304;53.520;10.104;2023-03-01T15:46:03;7.75;;;4.10;;
22270;SDS011;11304;53.520;10.104;2023-03-01T15:48:29;7.15;;;4.10;;
22270;SDS011;11304;53.520;10.104;2023-03-01T15:50:56;10.23;;;4.57;;
22270;SDS011;11304;53.520;10.104;2023-03-01T15:53:23;8.40;;;4.22;;
22270;SDS011;11304;53.520;10.104;2023-03-01T15:55:49;4.60;;;3.38;;
22270;SDS011;11304;53.520;10.104;2023-03-01T15:58:18;8.98;;;3.95;;
22270;SDS011;11304;53.520;10.104;2023-03-01T16:00:46;5.65;;;4.03;;
22270;SDS011;11304;53.520;10.104;2023-03-01T16:03:14;5.65;;;3.90;;
22270;SDS011;11304;53.520;10.104;2023-03-01T16:05:46;7.00;;;4.32;;
22270;SDS011;11304;53.520;10.104;2023-03-01T16:08:13;5.80;;;4.30;;
22270;SDS011;11304;53.520;10.104;2023-03-01T16:10:40;7.45;;;4.57;;
22270;SDS011;11304;53.520;10.104;2023-03-01T16:13:09;7.15;;;5.00;;
22270;SDS011;11304;53.520;10.104;2023-03-01T16:15:35;8.70;;;4.78;;
22270;SDS011;11304;53.520;10.104;2023-03-01T16:18:02;10.10;;;5.25;;
22270;SDS011;11304;53.520;10.104;2023-03-01T16:20:30;13.75;;;5.65;;
22270;SDS011;11304;53.520;10.104;2023-03-01T16:23:00;8.60;;;5.65;;
22270;SDS011;11304;53.520;10.104;2023-03-01T16:25:26;7.22;;;5.57;;
22270;SDS011;11304;53.520;10.104;2023-03-01T16:27:52;11.40;;;6.47;;
22270;SDS011;11304;53.520;10.104;2023-03-01T16:30:20;11.85;;;6.68;;
22270;SDS011;11304;53.520;10.104;2023-03-01T16:32:46;7.93;;;5.70;;
22270;SDS011;11304;53.520;10.104;2023-03-01T16:35:14;10.18;;;6.82;;
22270;SDS011;11304;53.520;10.104;2023-03-01T16:37:40;9.95;;;6.70;;
22270;SDS011;11304;53.520;10.104;2023-03-01T16:40:16;12.77;;;7.07;;
22270;SDS011;11304;53.520;10.104;2023-03-01T16:42:42;12.45;;;7.45;;
22270;SDS011;11304;53.520;10.104;2023-03-01T16:45:08;10.02;;;7.10;;
22270;SDS011;11304;53.520;10.104;2023-03-01T16:47:35;10.85;;;7.32;;
22270;SDS011;11304;53.520;10.104;2023-03-01T16:50:01;12.10;;;6.68;;